sensor_id;sensor_type;location;lat;lon;timestamp;pressure;altitude;pressure_sealevel;temperature;humidity
77871;BME280;67067;46.850;7.578;2024-02-15T00:00:05;95870.06;;;2.50;53.23
77871;BME280;67067;46.850;7.578;2024-02-15T00:01:10;95870.84;;;2.51;52.89
77871;BME280;67067;46.850;7.578;2024-02-15T00:02:15;95869.22;;;2.50;53.03
77871;BME280;67067;46.850;7.578;2024-02-15T00:03:19;95865.38;;;2.46;52.92
77871;BME280;67067;46.850;7.578;2024-02-15T00:04:21;95866.53;;;2.43;53.01
77871;BME280;67067;46.850;7.578;2024-02-15T00:05:23;95864.13;;;2.42;52.90
77871;BME280;67067;46.850;7.578;2024-02-15T00:06:25;95866.94;;;2.25;53.10
77871;BME280;67067;46.850;7.578;2024-02-15T00:07:28;95867.22;;;2.30;53.23
77871;BME280;67067;46.850;7.578;2024-02-15T00:08:29;95872.25;;;2.32;53.15
77871;BME280;67067;46.850;7.578;2024-02-15T00:09:34;95866.22;;;2.31;52.93
77871;BME280;67067;46.850;7.578;2024-02-15T00:10:36;95871.63;;;2.30;53.31
77871;BME280;67067;46.850;7.578;2024-02-15T00:11:38;95866.59;;;2.28;53.09
77871;BME280;67067;46.850;7.578;2024-02-15T00:12:41;95861.53;;;2.27;53.21
77871;BME280;67067;46.850;7.578;2024-02-15T00:13:42;95863.19;;;2.13;53.22
77871;BME280;67067;46.850;7.578;2024-02-15T00:14:45;95859.91;;;2.10;53.38
77871;BME280;67067;46.850;7.578;2024-02-15T00:15:47;95860.03;;;2.17;53.26
77871;BME280;67067;46.850;7.578;2024-02-15T00:16:50;95856.88;;;2.22;53.09
77871;BME280;67067;46.850;7.578;2024-02-15T00:17:51;95860.09;;;2.24;53.35
77871;BME280;67067;46.850;7.578;2024-02-15T00:18:53;95869.38;;;2.27;53.30
77871;BME280;67067;46.850;7.578;2024-02-15T00:19:57;95860.53;;;2.28;53.57
77871;BME280;67067;46.850;7.578;2024-02-15T00:20:58;95857.75;;;2.29;53.51
77871;BME280;67067;46.850;7.578;2024-02-15T00:22:01;95857.75;;;2.29;53.55
77871;BME280;67067;46.850;7.578;2024-02-15T00:23:03;95859.22;;;2.17;53.66
77871;BME280;67067;46.850;7.578;2024-02-15T00:24:05;95858.13;;;2.26;53.70
77871;BME280;67067;46.850;7.578;2024-02-15T00:25:07;95859.75;;;2.27;53.61
77871;BME280;67067;46.850;7.578;2024-02-15T00:26:12;95854.16;;;2.30;53.65
77871;BME280;67067;46.850;7.578;2024-02-15T00:27:16;95855.78;;;2.31;53.50
77871;BME280;67067;46.850;7.578;2024-02-15T00:28:18;95860.16;;;2.31;53.71
77871;BME280;67067;46.850;7.578;2024-02-15T00:29:24;95852.78;;;2.34;53.83
77871;BME280;67067;46.850;7.578;2024-02-15T00:30:28;95860.00;;;2.32;53.60
77871;BME280;67067;46.850;7.578;2024-02-15T00:31:30;95862.25;;;2.35;53.51
77871;BME280;67067;46.850;7.578;2024-02-15T00:32:32;95856.03;;;2.36;53.46
77871;BME280;67067;46.850;7.578;2024-02-15T00:33:34;95853.41;;;2.36;53.87
77871;BME280;67067;46.850;7.578;2024-02-15T00:34:41;95856.03;;;2.36;54.06
77871;BME280;67067;46.850;7.578;2024-02-15T00:35:45;95869.50;;;2.40;54.10
77871;BME280;67067;46.850;7.578;2024-02-15T00:36:47;95862.63;;;2.32;54.13
77871;BME280;67067;46.850;7.578;2024-02-15T00:37:49;95855.47;;;2.41;54.22
77871;BME280;67067;46.850;7.578;2024-02-15T00:38:51;95852.69;;;2.43;54.08
77871;BME280;67067;46.850;7.578;2024-02-15T00:39:56;95858.69;;;2.43;54.45
77871;BME280;67067;46.850;7.578;2024-02-15T00:40:58;95850.69;;;2.45;54.57
77871;BME280;67067;46.850;7.578;2024-02-15T00:42:06;95868.72;;;2.39;54.75
77871;BME280;67067;46.850;7.578;2024-02-15T00:43:11;95866.09;;;2.39;54.67
77871;BME280;67067;46.850;7.578;2024-02-15T00:44:12;95878.81;;;2.43;54.60
77871;BME280;67067;46.850;7.578;2024-02-15T00:45:14;95869.00;;;2.30;54.70
77871;BME280;67067;46.850;7.578;2024-02-15T00:46:18;95876.38;;;2.41;54.59
77871;BME280;67067;46.850;7.578;2024-02-15T00:47:22;95873.78;;;2.26;55.09
77871;BME280;67067;46.850;7.578;2024-02-15T00:48:26;95874.78;;;2.25;55.10
77871;BME280;67067;46.850;7.578;2024-02-15T00:49:31;95870.19;;;2.27;55.23
77871;BME280;67067;46.850;7.578;2024-02-15T00:50:33;95876.31;;;2.34;55.00
77871;BME280;67067;46.850;7.578;2024-02-15T00:51:35;95870.09;;;2.35;55.13
77871;BME280;67067;46.850;7.578;2024-02-15T00:52:37;95867.47;;;2.35;55.22
77871;BME280;67067;46.850;7.578;2024-02-15T00:53:40;95877.03;;;2.28;55.11
77871;BME280;67067;46.850;7.578;2024-02-15T00:54:41;95876.56;;;2.39;54.65
77871;BME280;67067;46.850;7.578;2024-02-15T00:55:43;95873.06;;;2.32;54.51
77871;BME280;67067;46.850;7.578;2024-02-15T00:56:45;95879.09;;;2.33;54.29
77871;BME280;67067;46.850;7.578;2024-02-15T00:57:47;95878.41;;;2.24;53.97
77871;BME280;67067;46.850;7.578;2024-02-15T00:58:51;95878.75;;;2.21;53.87
77871;BME280;67067;46.850;7.578;2024-02-15T00:59:52;95880.38;;;2.07;53.68
77871;BME280;67067;46.850;7.578;2024-02-15T01:00:54;95879.19;;;2.09;53.71
77871;BME280;67067;46.850;7.578;2024-02-15T01:01:58;95880.75;;;2.04;53.50
77871;BME280;67067;46.850;7.578;2024-02-15T01:03:00;95884.53;;;2.01;53.56
77871;BME280;67067;46.850;7.578;2024-02-15T01:04:01;95878.03;;;1.82;53.61
77871;BME280;67067;46.850;7.578;2024-02-15T01:05:04;95872.44;;;1.85;53.84
77871;BME280;67067;46.850;7.578;2024-02-15T01:06:08;95876.84;;;1.85;53.64
77871;BME280;67067;46.850;7.578;2024-02-15T01:07:12;95872.97;;;1.80;53.71
77871;BME280;67067;46.850;7.578;2024-02-15T01:08:18;95871.09;;;1.74;54.23
77871;BME280;67067;46.850;7.578;2024-02-15T01:09:22;95875.84;;;1.71;54.07
77871;BME280;67067;46.850;7.578;2024-02-15T01:10:25;95873.44;;;1.69;54.21
77871;BME280;67067;46.850;7.578;2024-02-15T01:11:29;95876.47;;;1.73;54.29
77871;BME280;67067;46.850;7.578;2024-02-15T01:12:36;95862.97;;;1.69;54.39
77871;BME280;67067;46.850;7.578;2024-02-15T01:13:38;95863.97;;;1.68;54.50
77871;BME280;67067;46.850;7.578;2024-02-15T01:14:39;95872.41;;;1.55;54.51
77871;BME280;67067;46.850;7.578;2024-02-15T01:15:41;95867.31;;;1.62;54.42
77871;BME280;67067;46.850;7.578;2024-02-15T01:16:45;95872.53;;;1.62;54.68
77871;BME280;67067;46.850;7.578;2024-02-15T01:17:48;95868.94;;;1.63;54.57
77871;BME280;67067;46.850;7.578;2024-02-15T01:18:52;95862.09;;;1.62;54.86
77871;BME280;67067;46.850;7.578;2024-02-15T01:19:54;95871.19;;;1.66;54.91
77871;BME280;67067;46.850;7.578;2024-02-15T01:21:00;95866.66;;;1.60;55.06
77871;BME280;67067;46.850;7.578;2024-02-15T01:22:02;95871.06;;;1.59;55.12
77871;BME280;67067;46.850;7.578;2024-02-15T01:23:04;95865.31;;;1.64;54.99
77871;BME280;67067;46.850;7.578;2024-02-15T01:24:09;95868.72;;;1.64;55.09
77871;BME280;67067;46.850;7.578;2024-02-15T01:25:11;95870.63;;;1.56;55.09
77871;BME280;67067;46.850;7.578;2024-02-15T01:26:13;95869.56;;;1.65;55.08
77871;BME280;67067;46.850;7.578;2024-02-15T01:27:16;95865.94;;;1.66;55.03
77871;BME280;67067;46.850;7.578;2024-02-15T01:28:18;95872.59;;;1.69;54.90
77871;BME280;67067;46.850;7.578;2024-02-15T01:29:20;95869.19;;;1.68;54.75
77871;BME280;67067;46.850;7.578;2024-02-15T01:30:22;95877.66;;;1.70;54.73
77871;BME280;67067;46.850;7.578;2024-02-15T01:31:24;95869.44;;;1.58;54.57
77871;BME280;67067;46.850;7.578;2024-02-15T01:32:28;95868.56;;;1.66;54.52
77871;BME280;67067;46.850;7.578;2024-02-15T01:33:31;95869.56;;;1.65;54.32
77871;BME280;67067;46.850;7.578;2024-02-15T01:34:33;95863.69;;;1.63;54.29
77871;BME280;67067;46.850;7.578;2024-02-15T01:35:38;95873.31;;;1.62;54.43
77871;BME280;67067;46.850;7.578;2024-02-15T01:36:40;95865.69;;;1.61;54.62
77871;BME280;67067;46.850;7.578;2024-02-15T01:37:43;95868.09;;;1.62;54.79
77871;BME280;67067;46.850;7.578;2024-02-15T01:38:45;95868.38;;;1.52;54.94
77871;BME280;67067;46.850;7.578;2024-02-15T01:39:47;95863.22;;;1.59;54.85
77871;BME280;67067;46.850;7.578;2024-02-15T01:40:49;95868.94;;;1.63;54.70
77871;BME280;67067;46.850;7.578;2024-02-15T01:41:51;95863.16;;;1.52;54.90
77871;BME280;67067;46.850;7.578;2024-02-15T01:42:59;95862.25;;;1.60;54.81
77871;BME280;67067;46.850;7.578;2024-02-15T01:44:02;95869.91;;;1.62;54.68
77871;BME280;67067;46.850;7.578;2024-02-15T01:45:05;95869.56;;;1.65;54.58
77871;BME280;67067;46.850;7.578;2024-02-15T01:46:10;95866.13;;;1.64;54.62
77871;BME280;67067;46.850;7.578;2024-02-15T01:47:12;95866.47;;;1.61;54.39
77871;BME280;67067;46.850;7.578;2024-02-15T01:48:16;95869.09;;;1.61;54.70
77871;BME280;67067;46.850;7.578;2024-02-15T01:49:19;95866.31;;;1.63;54.51
77871;BME280;67067;46.850;7.578;2024-02-15T01:50:25;95858.84;;;1.60;54.62
77871;BME280;67067;46.850;7.578;2024-02-15T01:51:29;95856.88;;;1.62;54.53
77871;BME280;67067;46.850;7.578;2024-02-15T01:52:36;95859.28;;;1.63;54.37
77871;BME280;67067;46.850;7.578;2024-02-15T01:53:40;95856.88;;;1.62;54.69
77871;BME280;67067;46.850;7.578;2024-02-15T01:54:45;95863.22;;;1.59;54.63
77871;BME280;67067;46.850;7.578;2024-02-15T01:55:47;95865.31;;;1.64;54.10
77871;BME280;67067;46.850;7.578;2024-02-15T01:56:52;95862.88;;;1.62;54.21
77871;BME280;67067;46.850;7.578;2024-02-15T01:57:56;95857.66;;;1.62;54.40
77871;BME280;67067;46.850;7.578;2024-02-15T01:58:58;95864.16;;;1.51;54.57
77871;BME280;67067;46.850;7.578;2024-02-15T02:00:02;95862.44;;;1.59;54.39
77871;BME280;67067;46.850;7.578;2024-02-15T02:12:33;95861.63;;;1.73;54.31
77871;BME280;67067;46.850;7.578;2024-02-15T02:13:37;95862.78;;;1.71;54.12
77871;BME280;67067;46.850;7.578;2024-02-15T02:14:41;95857.22;;;1.59;54.25
77871;BME280;67067;46.850;7.578;2024-02-15T02:15:43;95859.75;;;1.67;54.01
77871;BME280;67067;46.850;7.578;2024-02-15T02:16:44;95862.81;;;1.56;54.22
77871;BME280;67067;46.850;7.578;2024-02-15T02:17:51;95860.09;;;1.64;54.21
77871;BME280;67067;46.850;7.578;2024-02-15T02:18:55;95858.13;;;1.66;54.14
77871;BME280;67067;46.850;7.578;2024-02-15T02:20:00;95855.69;;;1.64;54.35
77871;BME280;67067;46.850;7.578;2024-02-15T02:21:02;95844.81;;;1.61;54.36
77871;BME280;67067;46.850;7.578;2024-02-15T02:22:08;95850.03;;;1.61;54.78
77871;BME280;67067;46.850;7.578;2024-02-15T02:23:14;95847.16;;;1.56;54.85
77871;BME280;67067;46.850;7.578;2024-02-15T02:24:22;95849.00;;;1.47;55.36
77871;BME280;67067;46.850;7.578;2024-02-15T02:25:28;95847.50;;;1.52;54.94
77871;BME280;67067;46.850;7.578;2024-02-15T02:26:30;95844.34;;;1.57;54.91
77871;BME280;67067;46.850;7.578;2024-02-15T02:27:32;95845.78;;;1.60;54.53
77871;BME280;67067;46.850;7.578;2024-02-15T02:28:34;95844.81;;;1.61;54.54
77871;BME280;67067;46.850;7.578;2024-02-15T02:29:36;95837.59;;;1.63;54.32
77871;BME280;67067;46.850;7.578;2024-02-15T02:30:44;95839.38;;;1.62;54.39
77871;BME280;67067;46.850;7.578;2024-02-15T02:31:47;95842.81;;;1.63;54.48
77871;BME280;67067;46.850;7.578;2024-02-15T02:32:50;95840.84;;;1.65;54.65
77871;BME280;67067;46.850;7.578;2024-02-15T02:33:53;95848.69;;;1.65;54.52
77871;BME280;67067;46.850;7.578;2024-02-15T02:34:56;95849.19;;;1.60;54.43
77871;BME280;67067;46.850;7.578;2024-02-15T02:36:02;95847.16;;;1.56;54.14
77871;BME280;67067;46.850;7.578;2024-02-15T02:37:04;95844.69;;;1.54;54.02
77871;BME280;67067;46.850;7.578;2024-02-15T02:38:11;95839.03;;;1.50;53.84
77871;BME280;67067;46.850;7.578;2024-02-15T02:39:13;95847.03;;;1.49;54.03
77871;BME280;67067;46.850;7.578;2024-02-15T02:40:15;95843.00;;;1.46;53.97
77871;BME280;67067;46.850;7.578;2024-02-15T02:41:19;95841.72;;;1.42;53.73
77871;BME280;67067;46.850;7.578;2024-02-15T02:42:27;95849.88;;;1.39;53.55
77871;BME280;67067;46.850;7.578;2024-02-15T02:43:29;95844.41;;;1.34;53.50
77871;BME280;67067;46.850;7.578;2024-02-15T02:44:31;95844.75;;;1.31;53.74
77871;BME280;67067;46.850;7.578;2024-02-15T02:45:35;95845.31;;;1.26;53.92
77871;BME280;67067;46.850;7.578;2024-02-15T02:46:37;95839.25;;;1.26;54.23
77871;BME280;67067;46.850;7.578;2024-02-15T02:47:44;95845.47;;;1.25;54.34
77871;BME280;67067;46.850;7.578;2024-02-15T02:48:48;95843.50;;;1.27;54.29
77871;BME280;67067;46.850;7.578;2024-02-15T02:49:53;95836.66;;;1.26;54.06
77871;BME280;67067;46.850;7.578;2024-02-15T02:50:55;95839.25;;;1.26;54.44
77871;BME280;67067;46.850;7.578;2024-02-15T02:51:57;95840.88;;;1.27;54.44
77871;BME280;67067;46.850;7.578;2024-02-15T02:53:01;95843.13;;;1.30;54.37
77871;BME280;67067;46.850;7.578;2024-02-15T02:54:02;95838.34;;;1.18;54.40
77871;BME280;67067;46.850;7.578;2024-02-15T02:55:08;95837.63;;;1.25;54.54
77871;BME280;67067;46.850;7.578;2024-02-15T02:56:10;95841.66;;;1.12;54.48
77871;BME280;67067;46.850;7.578;2024-02-15T02:57:14;95847.00;;;1.19;54.83
77871;BME280;67067;46.850;7.578;2024-02-15T02:58:16;95835.00;;;1.10;54.93
77871;BME280;67067;46.850;7.578;2024-02-15T02:59:18;95838.34;;;1.18;55.01
77871;BME280;67067;46.850;7.578;2024-02-15T03:00:20;95835.38;;;1.21;54.85
77871;BME280;67067;46.850;7.578;2024-02-15T03:01:23;95834.22;;;1.24;54.91
77871;BME280;67067;46.850;7.578;2024-02-15T03:02:28;95830.44;;;1.27;54.98
77871;BME280;67067;46.850;7.578;2024-02-15T03:03:31;95836.28;;;1.29;54.91
77871;BME280;67067;46.850;7.578;2024-02-15T03:04:37;95831.72;;;1.31;54.86
77871;BME280;67067;46.850;7.578;2024-02-15T03:05:40;95828.75;;;1.34;55.07
77871;BME280;67067;46.850;7.578;2024-02-15T03:06:43;95824.34;;;1.34;54.83
77871;BME280;67067;46.850;7.578;2024-02-15T03:07:48;95833.59;;;1.37;54.96
77871;BME280;67067;46.850;7.578;2024-02-15T03:08:50;95830.00;;;1.38;54.81
77871;BME280;67067;46.850;7.578;2024-02-15T03:09:59;95827.75;;;1.35;54.62
77871;BME280;67067;46.850;7.578;2024-02-15T03:11:02;95827.13;;;1.33;54.69
77871;BME280;67067;46.850;7.578;2024-02-15T03:12:07;95830.91;;;1.30;54.47
77871;BME280;67067;46.850;7.578;2024-02-15T03:13:11;95824.88;;;1.30;54.46
77871;BME280;67067;46.850;7.578;2024-02-15T03:14:13;95817.41;;;1.27;54.31
77871;BME280;67067;46.850;7.578;2024-02-15T03:15:15;95821.50;;;1.06;54.40
77871;BME280;67067;46.850;7.578;2024-02-15T03:16:17;95822.22;;;1.00;54.66
77871;BME280;67067;46.850;7.578;2024-02-15T03:17:23;95822.50;;;1.05;54.47
77871;BME280;67067;46.850;7.578;2024-02-15T03:18:25;95825.75;;;1.07;54.44
77871;BME280;67067;46.850;7.578;2024-02-15T03:19:27;95818.09;;;1.05;54.36
77871;BME280;67067;46.850;7.578;2024-02-15T03:20:29;95824.63;;;1.01;54.60
77871;BME280;67067;46.850;7.578;2024-02-15T03:21:31;95819.34;;;0.95;54.73
77871;BME280;67067;46.850;7.578;2024-02-15T03:22:33;95820.94;;;0.96;54.75
77871;BME280;67067;46.850;7.578;2024-02-15T03:23:37;95822.28;;;0.91;54.82
77871;BME280;67067;46.850;7.578;2024-02-15T03:24:41;95825.69;;;0.92;54.49
77871;BME280;67067;46.850;7.578;2024-02-15T03:25:42;95823.38;;;0.74;54.73
77871;BME280;67067;46.850;7.578;2024-02-15T03:26:44;95821.09;;;0.79;54.54
77871;BME280;67067;46.850;7.578;2024-02-15T03:27:46;95821.72;;;0.81;54.72
77871;BME280;67067;46.850;7.578;2024-02-15T03:28:51;95817.16;;;0.83;54.75
77871;BME280;67067;46.850;7.578;2024-02-15T03:29:53;95818.13;;;0.82;54.80
77871;BME280;67067;46.850;7.578;2024-02-15T03:30:56;95817.16;;;0.83;54.80
77871;BME280;67067;46.850;7.578;2024-02-15T03:31:57;95814.13;;;0.71;55.24
77871;BME280;67067;46.850;7.578;2024-02-15T03:32:59;95814.22;;;0.78;55.16
77871;BME280;67067;46.850;7.578;2024-02-15T03:34:03;95823.34;;;0.82;55.04
77871;BME280;67067;46.850;7.578;2024-02-15T03:35:05;95817.59;;;0.87;55.14
77871;BME280;67067;46.850;7.578;2024-02-15T03:36:08;95817.25;;;0.90;54.83
77871;BME280;67067;46.850;7.578;2024-02-15T03:37:11;95819.69;;;0.91;54.81
77871;BME280;67067;46.850;7.578;2024-02-15T03:38:13;95813.28;;;0.79;54.88
77871;BME280;67067;46.850;7.578;2024-02-15T03:39:15;95811.09;;;0.83;54.71
77871;BME280;67067;46.850;7.578;2024-02-15T03:40:17;95814.13;;;0.71;54.72
77871;BME280;67067;46.850;7.578;2024-02-15T03:41:19;95815.88;;;0.79;54.95
77871;BME280;67067;46.850;7.578;2024-02-15T03:42:22;95811.63;;;0.78;54.74
77871;BME280;67067;46.850;7.578;2024-02-15T03:43:24;95819.44;;;0.78;54.57
77871;BME280;67067;46.850;7.578;2024-02-15T03:44:26;95808.34;;;0.61;54.82
77871;BME280;67067;46.850;7.578;2024-02-15T03:45:27;95808.78;;;0.64;54.77
77871;BME280;67067;46.850;7.578;2024-02-15T03:46:31;95815.41;;;0.52;54.81
77871;BME280;67067;46.850;7.578;2024-02-15T03:47:34;95816.31;;;0.59;54.81
77871;BME280;67067;46.850;7.578;2024-02-15T03:48:42;95811.94;;;0.60;54.92
77871;BME280;67067;46.850;7.578;2024-02-15T03:49:46;95818.59;;;0.62;54.86
77871;BME280;67067;46.850;7.578;2024-02-15T03:50:47;95813.63;;;0.53;55.21
77871;BME280;67067;46.850;7.578;2024-02-15T03:51:49;95818.78;;;0.61;55.06
77871;BME280;67067;46.850;7.578;2024-02-15T03:52:58;95807.81;;;0.66;55.06
77871;BME280;67067;46.850;7.578;2024-02-15T03:54:01;95805.19;;;0.66;55.10
77871;BME280;67067;46.850;7.578;2024-02-15T03:55:06;95806.81;;;0.67;55.28
77871;BME280;67067;46.850;7.578;2024-02-15T03:56:12;95810.41;;;0.66;55.09
77871;BME280;67067;46.850;7.578;2024-02-15T03:57:13;95811.94;;;0.60;55.49
77871;BME280;67067;46.850;7.578;2024-02-15T03:58:18;95812.66;;;0.69;55.16
77871;BME280;67067;46.850;7.578;2024-02-15T03:59:21;95812.16;;;0.73;55.28
77871;BME280;67067;46.850;7.578;2024-02-15T04:00:28;95811.81;;;0.76;55.04
77871;BME280;67067;46.850;7.578;2024-02-15T04:01:30;95812.91;;;0.82;54.97
77871;BME280;67067;46.850;7.578;2024-02-15T04:02:35;95811.09;;;0.83;54.92
77871;BME280;67067;46.850;7.578;2024-02-15T04:03:37;95812.56;;;0.85;54.85
77871;BME280;67067;46.850;7.578;2024-02-15T04:04:39;95814.19;;;0.86;54.93
77871;BME280;67067;46.850;7.578;2024-02-15T04:05:43;95808.00;;;0.87;54.72
77871;BME280;67067;46.850;7.578;2024-02-15T04:06:45;95804.56;;;0.87;54.57
77871;BME280;67067;46.850;7.578;2024-02-15T04:07:48;95813.19;;;0.87;54.83
77871;BME280;67067;46.850;7.578;2024-02-15T04:08:49;95807.41;;;0.77;54.85
77871;BME280;67067;46.850;7.578;2024-02-15T04:09:51;95797.56;;;0.87;54.93
77871;BME280;67067;46.850;7.578;2024-02-15T04:10:53;95804.03;;;0.91;55.11
77871;BME280;67067;46.850;7.578;2024-02-15T04:11:57;95811.59;;;0.86;55.45
77871;BME280;67067;46.850;7.578;2024-02-15T04:12:59;95810.97;;;0.99;55.25
77871;BME280;67067;46.850;7.578;2024-02-15T04:14:01;95808.19;;;1.01;54.98
77871;BME280;67067;46.850;7.578;2024-02-15T04:15:04;95806.94;;;0.97;54.91
77871;BME280;67067;46.850;7.578;2024-02-15T04:16:14;95813.47;;;0.92;54.69
77871;BME280;67067;46.850;7.578;2024-02-15T04:17:16;95803.22;;;0.91;54.89
77871;BME280;67067;46.850;7.578;2024-02-15T04:18:23;95808.44;;;0.91;54.71
77871;BME280;67067;46.850;7.578;2024-02-15T04:19:25;95806.47;;;0.93;54.67
77871;BME280;67067;46.850;7.578;2024-02-15T04:20:27;95808.06;;;0.94;54.56
77871;BME280;67067;46.850;7.578;2024-02-15T04:21:30;95805.66;;;0.92;54.57
77871;BME280;67067;46.850;7.578;2024-02-15T04:22:32;95807.06;;;0.80;54.51
77871;BME280;67067;46.850;7.578;2024-02-15T04:23:38;95810.59;;;0.87;54.48
77871;BME280;67067;46.850;7.578;2024-02-15T04:24:41;95802.44;;;0.90;54.46
77871;BME280;67067;46.850;7.578;2024-02-15T04:25:42;95803.81;;;0.78;54.68
77871;BME280;67067;46.850;7.578;2024-02-15T04:26:45;95797.56;;;0.87;54.54
77871;BME280;67067;46.850;7.578;2024-02-15T04:27:50;95802.44;;;0.90;54.73
77871;BME280;67067;46.850;7.578;2024-02-15T04:28:52;95810.88;;;0.92;54.75
77871;BME280;67067;46.850;7.578;2024-02-15T04:29:54;95804.41;;;0.88;54.64
77871;BME280;67067;46.850;7.578;2024-02-15T04:30:56;95805.19;;;0.89;54.83
77871;BME280;67067;46.850;7.578;2024-02-15T04:31:57;95804.16;;;0.75;54.70
77871;BME280;67067;46.850;7.578;2024-02-15T04:32:59;95805.91;;;0.83;54.91
77871;BME280;67067;46.850;7.578;2024-02-15T04:34:01;95804.56;;;0.87;54.79
77871;BME280;67067;46.850;7.578;2024-02-15T04:35:04;95800.16;;;0.87;54.87
77871;BME280;67067;46.850;7.578;2024-02-15T04:36:10;95797.56;;;0.87;54.64
77871;BME280;67067;46.850;7.578;2024-02-15T04:37:13;95797.22;;;0.90;54.53
77871;BME280;67067;46.850;7.578;2024-02-15T04:38:19;95792.63;;;0.92;54.69
77871;BME280;67067;46.850;7.578;2024-02-15T04:39:22;95791.28;;;0.97;54.82
77871;BME280;67067;46.850;7.578;2024-02-15T04:40:28;95780.50;;;1.00;54.59
77871;BME280;67067;46.850;7.578;2024-02-15T04:41:30;95791.66;;;0.93;55.24
77871;BME280;67067;46.850;7.578;2024-02-15T04:42:35;95782.75;;;1.03;54.85
77871;BME280;67067;46.850;7.578;2024-02-15T04:43:40;95783.47;;;1.12;54.44
77871;BME280;67067;46.850;7.578;2024-02-15T04:44:42;95783.94;;;1.15;54.46
77871;BME280;67067;46.850;7.578;2024-02-15T04:45:44;95794.84;;;1.19;54.32
77871;BME280;67067;46.850;7.578;2024-02-15T04:46:48;95783.41;;;1.20;54.54
77871;BME280;67067;46.850;7.578;2024-02-15T04:47:54;95788.78;;;1.18;54.60
77871;BME280;67067;46.850;7.578;2024-02-15T04:48:58;95789.44;;;1.20;54.30
77871;BME280;67067;46.850;7.578;2024-02-15T04:50:03;95788.44;;;1.21;54.51
77871;BME280;67067;46.850;7.578;2024-02-15T04:51:07;95794.28;;;1.23;54.20
77871;BME280;67067;46.850;7.578;2024-02-15T04:52:12;95788.09;;;1.25;54.40
77871;BME280;67067;46.850;7.578;2024-02-15T04:53:13;95779.28;;;1.26;54.13
77871;BME280;67067;46.850;7.578;2024-02-15T04:54:15;95781.53;;;1.14;54.61
77871;BME280;67067;46.850;7.578;2024-02-15T04:55:17;95786.03;;;1.20;54.54
77871;BME280;67067;46.850;7.578;2024-02-15T04:56:21;95787.72;;;1.28;54.51
77871;BME280;67067;46.850;7.578;2024-02-15T04:57:26;95794.22;;;1.32;54.29
77871;BME280;67067;46.850;7.578;2024-02-15T04:58:29;95798.44;;;1.33;54.26
77871;BME280;67067;46.850;7.578;2024-02-15T04:59:31;95788.00;;;1.18;54.41
77871;BME280;67067;46.850;7.578;2024-02-15T05:02:16;95796.94;;;0.85;55.31
77871;BME280;67067;46.850;7.578;2024-02-15T05:03:19;95790.69;;;0.71;55.81
77871;BME280;67067;46.850;7.578;2024-02-15T05:04:23;95792.16;;;0.66;56.11
77871;BME280;67067;46.850;7.578;2024-02-15T05:05:26;95784.88;;;0.84;55.51
77871;BME280;67067;46.850;7.578;2024-02-15T05:06:29;95784.47;;;0.96;55.42
77871;BME280;67067;46.850;7.578;2024-02-15T05:07:32;95780.94;;;1.03;55.14
77871;BME280;67067;46.850;7.578;2024-02-15T05:08:33;95782.13;;;1.01;55.07
77871;BME280;67067;46.850;7.578;2024-02-15T05:09:40;95782.16;;;1.16;55.19
77871;BME280;67067;46.850;7.578;2024-02-15T05:10:41;95775.25;;;1.23;54.82
77871;BME280;67067;46.850;7.578;2024-02-15T05:11:43;95773.00;;;1.20;55.14
77871;BME280;67067;46.850;7.578;2024-02-15T05:12:49;95790.59;;;1.33;55.24
77871;BME280;67067;46.850;7.578;2024-02-15T05:13:52;95782.69;;;1.41;55.01
77871;BME280;67067;46.850;7.578;2024-02-15T05:14:53;95783.00;;;1.46;55.20
77871;BME280;67067;46.850;7.578;2024-02-15T05:15:55;95784.88;;;1.52;54.87
77871;BME280;67067;46.850;7.578;2024-02-15T05:16:59;95775.50;;;1.58;55.01
77871;BME280;67067;46.850;7.578;2024-02-15T05:18:01;95778.22;;;1.65;55.05
77871;BME280;67067;46.850;7.578;2024-02-15T05:19:04;95777.84;;;1.68;54.81
77871;BME280;67067;46.850;7.578;2024-02-15T05:20:10;95780.72;;;1.73;54.70
77871;BME280;67067;46.850;7.578;2024-02-15T05:21:13;95781.34;;;1.75;54.55
77871;BME280;67067;46.850;7.578;2024-02-15T05:22:15;95783.69;;;1.70;54.40
77871;BME280;67067;46.850;7.578;2024-02-15T05:23:17;95784.84;;;1.68;54.17
77871;BME280;67067;46.850;7.578;2024-02-15T05:24:19;95783.44;;;1.65;54.06
77871;BME280;67067;46.850;7.578;2024-02-15T05:25:21;95778.22;;;1.65;54.33
77871;BME280;67067;46.850;7.578;2024-02-15T05:26:28;95775.59;;;1.65;54.17
77871;BME280;67067;46.850;7.578;2024-02-15T05:27:29;95777.13;;;1.44;53.96
77871;BME280;67067;46.850;7.578;2024-02-15T05:28:31;95773.81;;;1.50;54.23
77871;BME280;67067;46.850;7.578;2024-02-15T05:29:34;95779.81;;;1.51;53.89
77871;BME280;67067;46.850;7.578;2024-02-15T05:30:40;95776.41;;;1.50;53.94
77871;BME280;67067;46.850;7.578;2024-02-15T05:31:42;95775.16;;;1.46;53.89
77871;BME280;67067;46.850;7.578;2024-02-15T05:32:43;95778.56;;;1.32;54.10
77871;BME280;67067;46.850;7.578;2024-02-15T05:33:47;95775.84;;;1.40;53.92
77871;BME280;67067;46.850;7.578;2024-02-15T05:34:53;95775.06;;;1.40;53.75
77871;BME280;67067;46.850;7.578;2024-02-15T05:35:56;95771.09;;;1.44;53.87
77871;BME280;67067;46.850;7.578;2024-02-15T05:36:58;95774.34;;;1.46;53.56
77871;BME280;67067;46.850;7.578;2024-02-15T05:38:01;95779.41;;;1.47;53.55
77871;BME280;67067;46.850;7.578;2024-02-15T05:39:05;95773.34;;;1.47;53.75
77871;BME280;67067;46.850;7.578;2024-02-15T05:40:07;95778.41;;;1.48;53.44
77871;BME280;67067;46.850;7.578;2024-02-15T05:41:17;95773.53;;;1.45;53.58
77871;BME280;67067;46.850;7.578;2024-02-15T05:42:18;95766.34;;;1.47;53.60
77871;BME280;67067;46.850;7.578;2024-02-15T05:43:22;95771.09;;;1.44;53.41
77871;BME280;67067;46.850;7.578;2024-02-15T05:44:25;95764.91;;;1.45;53.60
77871;BME280;67067;46.850;7.578;2024-02-15T05:45:28;95771.72;;;1.31;53.75
77871;BME280;67067;46.850;7.578;2024-02-15T05:46:36;95758.59;;;1.39;53.66
77871;BME280;67067;46.850;7.578;2024-02-15T05:47:40;95765.72;;;1.45;53.45
77871;BME280;67067;46.850;7.578;2024-02-15T05:48:42;95763.44;;;1.42;53.49
77871;BME280;67067;46.850;7.578;2024-02-15T05:49:46;95767.66;;;1.43;53.61
77871;BME280;67067;46.850;7.578;2024-02-15T05:50:48;95766.25;;;1.41;53.47
77871;BME280;67067;46.850;7.578;2024-02-15T05:51:51;95759.84;;;1.43;53.43